sensor_id;sensor_type;location;lat;lon;timestamp;P1;durP1;ratioP1;P2;durP2;ratioP2
39600;SDS011;25297;44.758;11.310;2023-12-29T00:01:29;108.40;;;72.00;;
39600;SDS011;25297;44.758;11.310;2023-12-29T00:03:57;98.65;;;72.90;;
39600;SDS011;25297;44.758;11.310;2023-12-29T00:06:23;85.00;;;62.95;;
39600;SDS011;25297;44.758;11.310;2023-12-29T00:08:48;83.38;;;59.83;;
39600;SDS011;25297;44.758;11.310;2023-12-29T00:11:17;96.78;;;72.60;;
39600;SDS011;25297;44.758;11.310;2023-12-29T00:13:44;97.05;;;71.63;;
39600;SDS011;25297;44.758;11.310;2023-12-29T00:16:10;99.63;;;71.05;;
39600;SDS011;25297;44.758;11.310;2023-12-29T00:18:39;89.20;;;67.35;;
39600;SDS011;25297;44.758;11.310;2023-12-29T00:21:07;84.90;;;64.50;;
39600;SDS011;25297;44.758;11.310;2023-12-29T00:23:33;76.70;;;51.17;;
39600;SDS011;25297;44.758;11.310;2023-12-29T00:25:58;85.75;;;63.30;;
39600;SDS011;25297;44.758;11.310;2023-12-29T00:28:24;87.90;;;66.90;;
39600;SDS011;25297;44.758;11.310;2023-12-29T00:30:50;96.78;;;70.82;;
39600;SDS011;25297;44.758;11.310;2023-12-29T00:33:15;88.88;;;66.35;;
39600;SDS011;25297;44.758;11.310;2023-12-29T00:35:41;84.28;;;65.80;;
39600;SDS011;25297;44.758;11.310;2023-12-29T00:38:06;77.22;;;56.58;;
39600;SDS011;25297;44.758;11.310;2023-12-29T00:40:32;80.80;;;59.83;;
39600;SDS011;25297;44.758;11.310;2023-12-29T00:42:59;71.60;;;57.53;;
39600;SDS011;25297;44.758;11.310;2023-12-29T00:45:26;77.32;;;59.28;;
39600;SDS011;25297;44.758;11.310;2023-12-29T00:47:54;75.20;;;57.05;;
39600;SDS011;25297;44.758;11.310;2023-12-29T00:50:20;75.43;;;56.28;;
39600;SDS011;25297;44.758;11.310;2023-12-29T00:52:45;74.43;;;53.92;;
39600;SDS011;25297;44.758;11.310;2023-12-29T00:55:11;64.43;;;51.60;;
39600;SDS011;25297;44.758;11.310;2023-12-29T00:57:37;59.20;;;45.42;;
39600;SDS011;25297;44.758;11.310;2023-12-29T01:00:02;72.13;;;53.95;;
39600;SDS011;25297;44.758;11.310;2023-12-29T01:02:32;65.15;;;48.03;;
39600;SDS011;25297;44.758;11.310;2023-12-29T01:04:57;70.85;;;55.50;;
39600;SDS011;25297;44.758;11.310;2023-12-29T01:07:23;72.50;;;54.67;;
39600;SDS011;25297;44.758;11.310;2023-12-29T01:09:49;73.20;;;55.58;;
39600;SDS011;25297;44.758;11.310;2023-12-29T01:12:15;67.97;;;53.50;;
39600;SDS011;25297;44.758;11.310;2023-12-29T01:14:40;61.35;;;46.05;;
39600;SDS011;25297;44.758;11.310;2023-12-29T01:17:06;57.63;;;44.25;;
39600;SDS011;25297;44.758;11.310;2023-12-29T01:19:32;54.45;;;42.90;;
39600;SDS011;25297;44.758;11.310;2023-12-29T01:21:58;54.30;;;44.00;;
39600;SDS011;25297;44.758;11.310;2023-12-29T01:24:23;71.97;;;51.53;;
39600;SDS011;25297;44.758;11.310;2023-12-29T01:26:49;68.22;;;51.85;;
39600;SDS011;25297;44.758;11.310;2023-12-29T01:29:14;62.80;;;47.47;;
39600;SDS011;25297;44.758;11.310;2023-12-29T01:31:40;68.60;;;51.72;;
39600;SDS011;25297;44.758;11.310;2023-12-29T01:34:06;55.95;;;42.40;;
39600;SDS011;25297;44.758;11.310;2023-12-29T01:36:31;63.70;;;46.33;;
39600;SDS011;25297;44.758;11.310;2023-12-29T01:38:57;68.47;;;51.13;;
39600;SDS011;25297;44.758;11.310;2023-12-29T01:41:22;63.45;;;47.80;;
39600;SDS011;25297;44.758;11.310;2023-12-29T01:44:15;66.72;;;51.50;;
39600;SDS011;25297;44.758;11.310;2023-12-29T01:46:45;70.40;;;48.85;;
39600;SDS011;25297;44.758;11.310;2023-12-29T01:49:15;63.17;;;45.83;;
39600;SDS011;25297;44.758;11.310;2023-12-29T01:51:46;60.55;;;47.95;;
39600;SDS011;25297;44.758;11.310;2023-12-29T01:54:15;61.77;;;46.87;;
39600;SDS011;25297;44.758;11.310;2023-12-29T01:56:43;65.70;;;50.05;;
39600;SDS011;25297;44.758;11.310;2023-12-29T01:59:09;66.82;;;51.03;;
39600;SDS011;25297;44.758;11.310;2023-12-29T02:01:35;62.75;;;43.80;;
39600;SDS011;25297;44.758;11.310;2023-12-29T02:04:02;62.97;;;46.80;;
39600;SDS011;25297;44.758;11.310;2023-12-29T02:06:28;53.25;;;42.03;;
39600;SDS011;25297;44.758;11.310;2023-12-29T02:08:54;67.15;;;49.35;;
39600;SDS011;25297;44.758;11.310;2023-12-29T02:11:20;60.70;;;45.13;;
39600;SDS011;25297;44.758;11.310;2023-12-29T02:13:45;72.45;;;51.78;;
39600;SDS011;25297;44.758;11.310;2023-12-29T02:16:19;66.35;;;50.20;;
39600;SDS011;25297;44.758;11.310;2023-12-29T02:18:54;64.60;;;49.17;;
39600;SDS011;25297;44.758;11.310;2023-12-29T02:21:26;63.72;;;47.47;;
39600;SDS011;25297;44.758;11.310;2023-12-29T02:23:52;58.67;;;44.25;;
39600;SDS011;25297;44.758;11.310;2023-12-29T02:26:17;61.38;;;46.58;;
39600;SDS011;25297;44.758;11.310;2023-12-29T02:28:49;61.75;;;45.47;;
39600;SDS011;25297;44.758;11.310;2023-12-29T02:31:21;67.13;;;49.63;;
39600;SDS011;25297;44.758;11.310;2023-12-29T02:33:49;59.90;;;44.45;;
39600;SDS011;25297;44.758;11.310;2023-12-29T02:36:17;63.97;;;49.22;;
39600;SDS011;25297;44.758;11.310;2023-12-29T02:38:44;64.45;;;49.13;;
39600;SDS011;25297;44.758;11.310;2023-12-29T02:41:10;65.55;;;46.72;;
39600;SDS011;25297;44.758;11.310;2023-12-29T02:43:36;69.22;;;49.30;;
39600;SDS011;25297;44.758;11.310;2023-12-29T02:46:01;71.95;;;52.85;;
39600;SDS011;25297;44.758;11.310;2023-12-29T02:48:27;75.18;;;53.83;;
39600;SDS011;25297;44.758;11.310;2023-12-29T02:50:53;68.15;;;51.72;;
39600;SDS011;25297;44.758;11.310;2023-12-29T02:53:18;67.20;;;52.05;;
39600;SDS011;25297;44.758;11.310;2023-12-29T02:55:44;67.38;;;52.25;;
39600;SDS011;25297;44.758;11.310;2023-12-29T02:58:10;68.40;;;50.38;;
39600;SDS011;25297;44.758;11.310;2023-12-29T03:00:35;74.97;;;53.35;;
39600;SDS011;25297;44.758;11.310;2023-12-29T03:03:01;67.40;;;52.35;;
39600;SDS011;25297;44.758;11.310;2023-12-29T03:05:26;58.13;;;44.28;;
39600;SDS011;25297;44.758;11.310;2023-12-29T03:07:52;74.30;;;56.00;;
39600;SDS011;25297;44.758;11.310;2023-12-29T03:10:18;70.75;;;54.78;;
39600;SDS011;25297;44.758;11.310;2023-12-29T03:12:43;67.25;;;49.30;;
39600;SDS011;25297;44.758;11.310;2023-12-29T03:15:09;62.55;;;45.47;;
39600;SDS011;25297;44.758;11.310;2023-12-29T03:17:35;68.32;;;52.88;;
39600;SDS011;25297;44.758;11.310;2023-12-29T03:20:01;62.03;;;46.17;;
39600;SDS011;25297;44.758;11.310;2023-12-29T03:22:27;61.55;;;44.10;;
39600;SDS011;25297;44.758;11.310;2023-12-29T03:24:53;63.33;;;45.60;;
39600;SDS011;25297;44.758;11.310;2023-12-29T03:27:19;61.33;;;43.40;;
39600;SDS011;25297;44.758;11.310;2023-12-29T03:29:44;72.18;;;52.33;;
39600;SDS011;25297;44.758;11.310;2023-12-29T03:32:10;65.22;;;49.22;;
39600;SDS011;25297;44.758;11.310;2023-12-29T03:34:36;74.65;;;56.60;;
39600;SDS011;25297;44.758;11.310;2023-12-29T03:37:01;61.53;;;45.42;;
39600;SDS011;25297;44.758;11.310;2023-12-29T03:39:27;74.78;;;55.88;;
39600;SDS011;25297;44.758;11.310;2023-12-29T03:41:52;62.35;;;45.17;;
39600;SDS011;25297;44.758;11.310;2023-12-29T03:44:18;59.58;;;43.72;;
39600;SDS011;25297;44.758;11.310;2023-12-29T03:46:44;69.95;;;55.20;;
39600;SDS011;25297;44.758;11.310;2023-12-29T03:49:11;70.78;;;51.83;;
39600;SDS011;25297;44.758;11.310;2023-12-29T03:51:37;73.38;;;56.83;;
39600;SDS011;25297;44.758;11.310;2023-12-29T03:54:02;61.20;;;44.65;;
39600;SDS011;25297;44.758;11.310;2023-12-29T03:56:28;75.53;;;58.35;;
39600;SDS011;25297;44.758;11.310;2023-12-29T03:58:54;77.20;;;57.17;;
39600;SDS011;25297;44.758;11.310;2023-12-29T04:01:19;73.30;;;56.75;;
39600;SDS011;25297;44.758;11.310;2023-12-29T04:03:45;78.45;;;57.88;;
39600;SDS011;25297;44.758;11.310;2023-12-29T04:06:11;74.10;;;58.67;;
39600;SDS011;25297;44.758;11.310;2023-12-29T04:08:37;83.25;;;59.25;;
39600;SDS011;25297;44.758;11.310;2023-12-29T04:11:03;76.63;;;59.05;;
39600;SDS011;25297;44.758;11.310;2023-12-29T04:13:30;80.72;;;58.92;;
39600;SDS011;25297;44.758;11.310;2023-12-29T04:15:56;76.50;;;59.58;;
39600;SDS011;25297;44.758;11.310;2023-12-29T04:18:22;72.13;;;55.63;;
39600;SDS011;25297;44.758;11.310;2023-12-29T04:20:48;63.75;;;48.15;;
39600;SDS011;25297;44.758;11.310;2023-12-29T04:23:14;74.63;;;56.03;;
39600;SDS011;25297;44.758;11.310;2023-12-29T04:25:40;67.68;;;52.00;;
39600;SDS011;25297;44.758;11.310;2023-12-29T04:28:06;68.65;;;50.08;;
39600;SDS011;25297;44.758;11.310;2023-12-29T04:30:33;80.78;;;58.05;;
39600;SDS011;25297;44.758;11.310;2023-12-29T04:32:59;75.57;;;58.05;;
39600;SDS011;25297;44.758;11.310;2023-12-29T04:35:24;79.07;;;60.42;;
39600;SDS011;25297;44.758;11.310;2023-12-29T04:37:50;86.18;;;62.17;;
39600;SDS011;25297;44.758;11.310;2023-12-29T04:40:16;76.57;;;57.42;;
39600;SDS011;25297;44.758;11.310;2023-12-29T04:42:42;73.78;;;57.17;;
39600;SDS011;25297;44.758;11.310;2023-12-29T04:45:08;75.60;;;57.83;;
39600;SDS011;25297;44.758;11.310;2023-12-29T04:47:33;84.70;;;60.97;;
39600;SDS011;25297;44.758;11.310;2023-12-29T04:49:59;63.25;;;46.47;;
39600;SDS011;25297;44.758;11.310;2023-12-29T04:52:25;82.15;;;59.30;;
39600;SDS011;25297;44.758;11.310;2023-12-29T04:54:50;80.70;;;59.90;;
39600;SDS011;25297;44.758;11.310;2023-12-29T04:57:16;78.15;;;58.92;;
39600;SDS011;25297;44.758;11.310;2023-12-29T04:59:42;74.10;;;54.92;;
39600;SDS011;25297;44.758;11.310;2023-12-29T05:02:07;79.43;;;57.85;;
39600;SDS011;25297;44.758;11.310;2023-12-29T05:04:33;80.80;;;58.95;;
39600;SDS011;25297;44.758;11.310;2023-12-29T05:06:59;76.13;;;56.65;;
39600;SDS011;25297;44.758;11.310;2023-12-29T05:09:24;83.40;;;61.17;;
39600;SDS011;25297;44.758;11.310;2023-12-29T05:11:50;79.80;;;57.10;;
39600;SDS011;25297;44.758;11.310;2023-12-29T05:14:15;76.32;;;58.97;;
39600;SDS011;25297;44.758;11.310;2023-12-29T05:16:41;75.65;;;56.55;;
39600;SDS011;25297;44.758;11.310;2023-12-29T05:19:07;79.03;;;58.20;;
39600;SDS011;25297;44.758;11.310;2023-12-29T05:21:33;76.45;;;54.17;;
39600;SDS011;25297;44.758;11.310;2023-12-29T05:23:59;78.78;;;57.53;;
39600;SDS011;25297;44.758;11.310;2023-12-29T05:26:25;64.72;;;48.67;;
39600;SDS011;25297;44.758;11.310;2023-12-29T05:28:51;74.00;;;55.33;;
39600;SDS011;25297;44.758;11.310;2023-12-29T05:31:16;80.75;;;57.90;;
39600;SDS011;25297;44.758;11.310;2023-12-29T05:33:43;80.22;;;57.30;;
39600;SDS011;25297;44.758;11.310;2023-12-29T05:36:09;62.78;;;46.03;;
39600;SDS011;25297;44.758;11.310;2023-12-29T05:38:38;71.72;;;52.20;;
39600;SDS011;25297;44.758;11.310;2023-12-29T05:41:06;81.00;;;59.63;;
39600;SDS011;25297;44.758;11.310;2023-12-29T05:43:32;81.50;;;59.42;;
39600;SDS011;25297;44.758;11.310;2023-12-29T05:45:58;81.72;;;61.35;;
39600;SDS011;25297;44.758;11.310;2023-12-29T05:48:24;71.75;;;53.90;;
39600;SDS011;25297;44.758;11.310;2023-12-29T05:50:51;74.15;;;54.20;;
39600;SDS011;25297;44.758;11.310;2023-12-29T05:53:17;77.13;;;56.10;;
39600;SDS011;25297;44.758;11.310;2023-12-29T05:55:43;76.93;;;57.25;;
39600;SDS011;25297;44.758;11.310;2023-12-29T05:58:09;74.03;;;56.28;;
39600;SDS011;25297;44.758;11.310;2023-12-29T06:00:38;78.38;;;58.30;;
39600;SDS011;25297;44.758;11.310;2023-12-29T06:03:04;78.97;;;57.70;;
39600;SDS011;25297;44.758;11.310;2023-12-29T06:05:30;78.05;;;56.85;;
39600;SDS011;25297;44.758;11.310;2023-12-29T06:07:56;79.55;;;56.78;;
39600;SDS011;25297;44.758;11.310;2023-12-29T06:10:22;88.45;;;61.50;;
39600;SDS011;25297;44.758;11.310;2023-12-29T06:12:48;83.38;;;59.58;;
39600;SDS011;25297;44.758;11.310;2023-12-29T06:15:14;78.45;;;55.75;;
39600;SDS011;25297;44.758;11.310;2023-12-29T06:17:40;78.60;;;57.90;;
39600;SDS011;25297;44.758;11.310;2023-12-29T06:20:07;73.18;;;55.22;;
39600;SDS011;25297;44.758;11.310;2023-12-29T06:22:33;75.18;;;56.20;;
39600;SDS011;25297;44.758;11.310;2023-12-29T06:24:58;76.75;;;56.28;;
39600;SDS011;25297;44.758;11.310;2023-12-29T06:27:25;71.85;;;54.30;;
39600;SDS011;25297;44.758;11.310;2023-12-29T06:29:51;80.20;;;57.95;;
39600;SDS011;25297;44.758;11.310;2023-12-29T06:32:16;75.13;;;53.63;;
39600;SDS011;25297;44.758;11.310;2023-12-29T06:34:42;82.43;;;57.55;;
39600;SDS011;25297;44.758;11.310;2023-12-29T06:37:08;71.53;;;52.42;;
39600;SDS011;25297;44.758;11.310;2023-12-29T06:39:33;71.38;;;50.60;;
39600;SDS011;25297;44.758;11.310;2023-12-29T06:41:59;82.05;;;58.05;;
39600;SDS011;25297;44.758;11.310;2023-12-29T06:44:25;80.60;;;57.78;;
39600;SDS011;25297;44.758;11.310;2023-12-29T06:46:50;79.95;;;56.85;;
39600;SDS011;25297;44.758;11.310;2023-12-29T06:49:16;81.13;;;57.55;;
39600;SDS011;25297;44.758;11.310;2023-12-29T06:51:42;86.45;;;61.42;;
39600;SDS011;25297;44.758;11.310;2023-12-29T06:54:07;81.28;;;56.92;;
39600;SDS011;25297;44.758;11.310;2023-12-29T06:56:33;83.15;;;57.03;;
39600;SDS011;25297;44.758;11.310;2023-12-29T06:58:59;78.18;;;54.17;;
39600;SDS011;25297;44.758;11.310;2023-12-29T07:01:24;84.10;;;58.22;;
39600;SDS011;25297;44.758;11.310;2023-12-29T07:03:50;81.63;;;56.72;;
39600;SDS011;25297;44.758;11.310;2023-12-29T07:06:16;74.15;;;55.55;;
39600;SDS011;25297;44.758;11.310;2023-12-29T07:08:41;70.18;;;50.13;;
39600;SDS011;25297;44.758;11.310;2023-12-29T07:11:10;71.40;;;51.60;;
39600;SDS011;25297;44.758;11.310;2023-12-29T07:13:37;74.63;;;54.83;;
39600;SDS011;25297;44.758;11.310;2023-12-29T07:16:03;61.80;;;46.55;;
39600;SDS011;25297;44.758;11.310;2023-12-29T07:18:29;61.83;;;46.55;;
39600;SDS011;25297;44.758;11.310;2023-12-29T07:20:54;76.53;;;51.83;;
39600;SDS011;25297;44.758;11.310;2023-12-29T07:23:20;77.15;;;55.30;;
39600;SDS011;25297;44.758;11.310;2023-12-29T07:25:47;69.43;;;50.67;;
39600;SDS011;25297;44.758;11.310;2023-12-29T07:28:13;71.60;;;51.47;;
39600;SDS011;25297;44.758;11.310;2023-12-29T07:30:39;68.80;;;52.08;;
39600;SDS011;25297;44.758;11.310;2023-12-29T07:33:04;80.85;;;54.92;;
39600;SDS011;25297;44.758;11.310;2023-12-29T07:35:30;76.28;;;53.25;;
39600;SDS011;25297;44.758;11.310;2023-12-29T07:37:56;80.40;;;53.70;;
39600;SDS011;25297;44.758;11.310;2023-12-29T07:40:21;70.28;;;51.22;;
39600;SDS011;25297;44.758;11.310;2023-12-29T07:42:47;73.25;;;53.08;;
39600;SDS011;25297;44.758;11.310;2023-12-29T07:45:15;67.75;;;49.78;;
39600;SDS011;25297;44.758;11.310;2023-12-29T07:47:41;66.57;;;50.17;;
39600;SDS011;25297;44.758;11.310;2023-12-29T07:50:07;66.45;;;48.40;;
39600;SDS011;25297;44.758;11.310;2023-12-29T07:52:33;56.63;;;39.78;;
39600;SDS011;25297;44.758;11.310;2023-12-29T07:54:59;58.15;;;43.90;;
39600;SDS011;25297;44.758;11.310;2023-12-29T07:57:24;61.72;;;47.75;;
39600;SDS011;25297;44.758;11.310;2023-12-29T07:59:50;58.50;;;41.30;;
39600;SDS011;25297;44.758;11.310;2023-12-29T08:02:16;57.22;;;42.90;;
39600;SDS011;25297;44.758;11.310;2023-12-29T08:04:41;49.97;;;38.40;;
39600;SDS011;25297;44.758;11.310;2023-12-29T08:07:07;49.72;;;37.42;;
39600;SDS011;25297;44.758;11.310;2023-12-29T08:09:33;51.15;;;35.85;;
39600;SDS011;25297;44.758;11.310;2023-12-29T08:11:58;48.65;;;34.78;;
39600;SDS011;25297;44.758;11.310;2023-12-29T08:14:25;45.80;;;35.03;;
39600;SDS011;25297;44.758;11.310;2023-12-29T08:16:51;52.95;;;37.00;;
39600;SDS011;25297;44.758;11.310;2023-12-29T08:19:17;44.63;;;32.85;;
39600;SDS011;25297;44.758;11.310;2023-12-29T08:21:42;46.72;;;35.30;;
39600;SDS011;25297;44.758;11.310;2023-12-29T08:24:08;45.72;;;33.05;;
39600;SDS011;25297;44.758;11.310;2023-12-29T08:26:33;56.00;;;40.88;;
39600;SDS011;25297;44.758;11.310;2023-12-29T08:28:59;46.58;;;34.17;;
39600;SDS011;25297;44.758;11.310;2023-12-29T08:31:25;45.17;;;34.25;;
39600;SDS011;25297;44.758;11.310;2023-12-29T08:33:52;41.13;;;30.38;;
39600;SDS011;25297;44.758;11.310;2023-12-29T08:36:18;40.28;;;31.02;;
39600;SDS011;25297;44.758;11.310;2023-12-29T08:38:44;44.38;;;34.08;;
39600;SDS011;25297;44.758;11.310;2023-12-29T08:41:13;47.28;;;34.63;;
39600;SDS011;25297;44.758;11.310;2023-12-29T08:43:39;45.65;;;35.45;;
39600;SDS011;25297;44.758;11.310;2023-12-29T08:46:04;47.20;;;34.72;;
39600;SDS011;25297;44.758;11.310;2023-12-29T08:48:30;44.08;;;31.33;;
39600;SDS011;25297;44.758;11.310;2023-12-29T08:50:56;49.90;;;34.42;;
39600;SDS011;25297;44.758;11.310;2023-12-29T08:53:21;43.50;;;33.67;;
39600;SDS011;25297;44.758;11.310;2023-12-29T08:55:47;46.28;;;32.45;;
39600;SDS011;25297;44.758;11.310;2023-12-29T08:58:13;46.85;;;35.10;;
39600;SDS011;25297;44.758;11.310;2023-12-29T09:00:38;52.40;;;37.03;;
39600;SDS011;25297;44.758;11.310;2023-12-29T09:03:04;43.28;;;32.53;;
39600;SDS011;25297;44.758;11.310;2023-12-29T09:05:30;51.80;;;36.92;;
39600;SDS011;25297;44.758;11.310;2023-12-29T09:07:55;54.10;;;38.35;;
39600;SDS011;25297;44.758;11.310;2023-12-29T09:10:21;55.38;;;41.00;;
39600;SDS011;25297;44.758;11.310;2023-12-29T09:12:47;55.13;;;40.05;;
39600;SDS011;25297;44.758;11.310;2023-12-29T09:15:14;60.35;;;43.50;;
39600;SDS011;25297;44.758;11.310;2023-12-29T09:17:39;52.47;;;39.78;;
39600;SDS011;25297;44.758;11.310;2023-12-29T09:20:05;61.13;;;42.30;;
39600;SDS011;25297;44.758;11.310;2023-12-29T09:22:33;59.63;;;44.38;;
39600;SDS011;25297;44.758;11.310;2023-12-29T09:24:58;58.22;;;42.00;;
39600;SDS011;25297;44.758;11.310;2023-12-29T09:27:24;59.17;;;42.65;;
39600;SDS011;25297;44.758;11.310;2023-12-29T09:29:50;63.10;;;46.08;;
39600;SDS011;25297;44.758;11.310;2023-12-29T09:32:15;62.55;;;44.75;;
39600;SDS011;25297;44.758;11.310;2023-12-29T09:34:41;55.33;;;41.58;;
39600;SDS011;25297;44.758;11.310;2023-12-29T09:37:07;63.83;;;45.75;;
39600;SDS011;25297;44.758;11.310;2023-12-29T09:39:33;58.58;;;44.90;;
39600;SDS011;25297;44.758;11.310;2023-12-29T09:41:59;58.95;;;43.75;;
39600;SDS011;25297;44.758;11.310;2023-12-29T09:44:25;52.85;;;40.70;;
39600;SDS011;25297;44.758;11.310;2023-12-29T09:46:54;55.90;;;41.90;;
39600;SDS011;25297;44.758;11.310;2023-12-29T09:49:20;56.60;;;40.60;;
39600;SDS011;25297;44.758;11.310;2023-12-29T09:51:46;59.15;;;42.20;;
39600;SDS011;25297;44.758;11.310;2023-12-29T09:54:13;61.03;;;45.13;;
39600;SDS011;25297;44.758;11.310;2023-12-29T09:56:40;54.85;;;40.33;;
39600;SDS011;25297;44.758;11.310;2023-12-29T09:59:08;56.85;;;40.92;;
39600;SDS011;25297;44.758;11.310;2023-12-29T10:01:36;53.30;;;38.83;;
39600;SDS011;25297;44.758;11.310;2023-12-29T10:04:04;52.08;;;38.50;;
39600;SDS011;25297;44.758;11.310;2023-12-29T10:06:31;56.90;;;40.83;;
39600;SDS011;25297;44.758;11.310;2023-12-29T10:09:01;47.13;;;35.50;;
39600;SDS011;25297;44.758;11.310;2023-12-29T10:11:29;54.45;;;39.20;;
39600;SDS011;25297;44.758;11.310;2023-12-29T10:13:58;52.25;;;37.13;;
39600;SDS011;25297;44.758;11.310;2023-12-29T10:16:29;54.10;;;37.17;;
39600;SDS011;25297;44.758;11.310;2023-12-29T10:19:08;50.85;;;38.58;;
39600;SDS011;25297;44.758;11.310;2023-12-29T10:21:53;46.65;;;35.95;;
39600;SDS011;25297;44.758;11.310;2023-12-29T10:24:27;43.60;;;33.00;;
39600;SDS011;25297;44.758;11.310;2023-12-29T10:26:53;45.33;;;33.75;;
39600;SDS011;25297;44.758;11.310;2023-12-29T10:29:20;45.97;;;35.15;;
39600;SDS011;25297;44.758;11.310;2023-12-29T10:31:46;46.60;;;33.35;;
39600;SDS011;25297;44.758;11.310;2023-12-29T10:34:22;47.40;;;33.75;;
39600;SDS011;25297;44.758;11.310;2023-12-29T10:36:58;41.13;;;29.23;;
39600;SDS011;25297;44.758;11.310;2023-12-29T10:39:26;42.95;;;30.33;;
39600;SDS011;25297;44.758;11.310;2023-12-29T10:42:02;40.13;;;31.42;;
39600;SDS011;25297;44.758;11.310;2023-12-29T10:44:36;37.05;;;27.52;;
39600;SDS011;25297;44.758;11.310;2023-12-29T10:47:08;36.22;;;27.13;;
39600;SDS011;25297;44.758;11.310;2023-12-29T10:49:35;40.13;;;30.25;;
39600;SDS011;25297;44.758;11.310;2023-12-29T10:52:10;32.53;;;24.88;;
39600;SDS011;25297;44.758;11.310;2023-12-29T10:54:40;32.75;;;26.55;;
39600;SDS011;25297;44.758;11.310;2023-12-29T10:57:07;34.22;;;26.25;;
39600;SDS011;25297;44.758;11.310;2023-12-29T10:59:34;35.35;;;26.15;;
39600;SDS011;25297;44.758;11.310;2023-12-29T11:02:03;33.30;;;24.98;;
39600;SDS011;25297;44.758;11.310;2023-12-29T11:04:29;35.33;;;25.67;;
39600;SDS011;25297;44.758;11.310;2023-12-29T11:06:55;35.47;;;24.85;;
39600;SDS011;25297;44.758;11.310;2023-12-29T11:09:27;39.53;;;27.48;;
39600;SDS011;25297;44.758;11.310;2023-12-29T11:11:55;41.00;;;28.05;;
39600;SDS011;25297;44.758;11.310;2023-12-29T11:14:26;36.80;;;28.55;;
39600;SDS011;25297;44.758;11.310;2023-12-29T11:16:56;37.92;;;28.98;;
39600;SDS011;25297;44.758;11.310;2023-12-29T11:19:23;37.22;;;29.17;;
39600;SDS011;25297;44.758;11.310;2023-12-29T11:21:51;47.00;;;31.65;;
39600;SDS011;25297;44.758;11.310;2023-12-29T11:24:19;39.25;;;29.75;;
39600;SDS011;25297;44.758;11.310;2023-12-29T11:26:44;40.00;;;29.13;;
39600;SDS011;25297;44.758;11.310;2023-12-29T11:29:13;40.72;;;32.20;;
39600;SDS011;25297;44.758;11.310;2023-12-29T11:31:40;39.15;;;29.05;;
39600;SDS011;25297;44.758;11.310;2023-12-29T11:34:09;37.80;;;28.42;;
39600;SDS011;25297;44.758;11.310;2023-12-29T11:36:40;43.45;;;32.50;;
39600;SDS011;25297;44.758;11.310;2023-12-29T11:39:18;40.17;;;30.40;;
39600;SDS011;25297;44.758;11.310;2023-12-29T11:44:31;39.53;;;31.25;;
39600;SDS011;25297;44.758;11.310;2023-12-29T11:46:58;39.85;;;28.58;;
39600;SDS011;25297;44.758;11.310;2023-12-29T11:49:25;36.78;;;28.55;;
39600;SDS011;25297;44.758;11.310;2023-12-29T11:51:50;41.28;;;29.98;;
39600;SDS011;25297;44.758;11.310;2023-12-29T11:54:23;35.60;;;29.50;;
39600;SDS011;25297;44.758;11.310;2023-12-29T11:56:55;38.30;;;28.77;;
39600;SDS011;25297;44.758;11.310;2023-12-29T12:01:54;37.90;;;27.30;;
39600;SDS011;25297;44.758;11.310;2023-12-29T12:09:52;34.80;;;27.77;;
39600;SDS011;25297;44.758;11.310;2023-12-29T12:12:56;35.72;;;25.75;;
39600;SDS011;25297;44.758;11.310;2023-12-29T12:17:55;30.65;;;23.38;;
39600;SDS011;25297;44.758;11.310;2023-12-29T12:20:25;31.00;;;24.40;;
39600;SDS011;25297;44.758;11.310;2023-12-29T12:22:57;32.00;;;25.40;;
39600;SDS011;25297;44.758;11.310;2023-12-29T12:25:26;29.07;;;23.27;;
39600;SDS011;25297;44.758;11.310;2023-12-29T12:27:54;31.88;;;24.75;;
39600;SDS011;25297;44.758;11.310;2023-12-29T12:30:21;28.20;;;22.30;;
39600;SDS011;25297;44.758;11.310;2023-12-29T12:32:47;29.05;;;22.92;;
39600;SDS011;25297;44.758;11.310;2023-12-29T12:35:22;29.13;;;22.02;;
39600;SDS011;25297;44.758;11.310;2023-12-29T12:37:48;33.53;;;22.38;;
39600;SDS011;25297;44.758;11.310;2023-12-29T12:40:26;33.65;;;23.50;;
39600;SDS011;25297;44.758;11.310;2023-12-29T12:42:52;30.88;;;23.77;;
39600;SDS011;25297;44.758;11.310;2023-12-29T12:45:19;31.25;;;25.00;;
39600;SDS011;25297;44.758;11.310;2023-12-29T12:47:50;29.27;;;22.73;;
39600;SDS011;25297;44.758;11.310;2023-12-29T12:50:19;32.17;;;22.60;;
39600;SDS011;25297;44.758;11.310;2023-12-29T12:52:45;30.08;;;23.38;;
39600;SDS011;25297;44.758;11.310;2023-12-29T12:55:11;31.20;;;23.33;;
39600;SDS011;25297;44.758;11.310;2023-12-29T12:57:39;30.67;;;21.90;;
39600;SDS011;25297;44.758;11.310;2023-12-29T13:00:05;32.08;;;23.92;;
39600;SDS011;25297;44.758;11.310;2023-12-29T13:02:33;31.27;;;23.50;;
39600;SDS011;25297;44.758;11.310;2023-12-29T13:05:00;29.95;;;23.80;;
39600;SDS011;25297;44.758;11.310;2023-12-29T13:07:30;24.67;;;20.67;;
39600;SDS011;25297;44.758;11.310;2023-12-29T13:09:56;31.55;;;20.95;;
39600;SDS011;25297;44.758;11.310;2023-12-29T13:12:23;27.98;;;21.15;;
39600;SDS011;25297;44.758;11.310;2023-12-29T13:14:49;26.42;;;22.17;;
39600;SDS011;25297;44.758;11.310;2023-12-29T13:17:16;23.48;;;20.15;;
39600;SDS011;25297;44.758;11.310;2023-12-29T13:19:42;29.02;;;20.27;;
39600;SDS011;25297;44.758;11.310;2023-12-29T13:22:12;30.23;;;22.02;;
39600;SDS011;25297;44.758;11.310;2023-12-29T13:24:44;27.98;;;19.83;;
39600;SDS011;25297;44.758;11.310;2023-12-29T13:27:10;23.95;;;19.88;;
39600;SDS011;25297;44.758;11.310;2023-12-29T13:29:37;25.52;;;20.38;;
39600;SDS011;25297;44.758;11.310;2023-12-29T13:32:12;23.48;;;17.48;;
39600;SDS011;25297;44.758;11.310;2023-12-29T13:37:47;24.67;;;20.42;;
39600;SDS011;25297;44.758;11.310;2023-12-29T13:40:22;27.48;;;19.30;;
39600;SDS011;25297;44.758;11.310;2023-12-29T13:42:56;26.95;;;20.95;;
39600;SDS011;25297;44.758;11.310;2023-12-29T13:45:24;26.23;;;18.83;;
39600;SDS011;25297;44.758;11.310;2023-12-29T13:47:51;24.60;;;19.52;;
39600;SDS011;25297;44.758;11.310;2023-12-29T13:50:18;26.38;;;19.83;;
39600;SDS011;25297;44.758;11.310;2023-12-29T13:52:44;27.60;;;21.77;;
39600;SDS011;25297;44.758;11.310;2023-12-29T13:55:10;31.08;;;22.13;;
39600;SDS011;25297;44.758;11.310;2023-12-29T13:57:35;29.38;;;19.85;;
39600;SDS011;25297;44.758;11.310;2023-12-29T14:00:17;31.35;;;23.10;;
39600;SDS011;25297;44.758;11.310;2023-12-29T14:03:42;29.60;;;23.05;;
39600;SDS011;25297;44.758;11.310;2023-12-29T14:05:44;26.20;;;22.23;;
39600;SDS011;25297;44.758;11.310;2023-12-29T14:08:25;26.95;;;22.92;;
39600;SDS011;25297;44.758;11.310;2023-12-29T14:10:56;36.22;;;27.42;;
39600;SDS011;25297;44.758;11.310;2023-12-29T14:13:21;31.45;;;27.73;;
39600;SDS011;25297;44.758;11.310;2023-12-29T14:15:47;33.10;;;27.92;;
39600;SDS011;25297;44.758;11.310;2023-12-29T14:18:29;34.80;;;29.00;;
39600;SDS011;25297;44.758;11.310;2023-12-29T14:20:58;33.60;;;28.55;;
39600;SDS011;25297;44.758;11.310;2023-12-29T14:23:24;35.65;;;28.67;;
39600;SDS011;25297;44.758;11.310;2023-12-29T14:25:50;32.40;;;28.05;;